This is the latest recevied weather packets stored in our database for station/object N5KR. If no packets are shown the sender has not sent any weather packets the latest 10 day(s).
| Time | Temp. | Humidity | Pressure | Rain* | Wind** | Luminosity | Snow |
|---|---|---|---|---|---|---|---|
| 1777502705 | 16.11° C | 83% | 1014.3 hPa | 0.76 mm | - | 46 W/m² | - |
| 1777500305 | 17.78° C | 75% | 1013.5 hPa | 0 mm | - | 88 W/m² | - |
| 1777499405 | 17.78° C | 77% | 1013 hPa | 0 mm | - | 185 W/m² | - |
| 1777496105 | 17.78° C | 77% | 1013.8 hPa | 0 mm | - | 247 W/m² | - |
| 1777495506 | 18.33° C | 75% | 1013.6 hPa | 0 mm | - | 280 W/m² | - |
| 1777495206 | 18.33° C | 75% | 1013.6 hPa | 0 mm | - | 497 W/m² | - |
| 1777494605 | 17.78° C | 77% | 1014 hPa | 0 mm | - | 336 W/m² | - |
| 1777492205 | 17.22° C | 76% | 1016 hPa | 0 mm | - | 38 W/m² | - |
| 1777488905 | 17.22° C | 76% | 1014.3 hPa | 0 mm | - | 115 W/m² | - |
| 1777488605 | 17.22° C | 77% | 1014.4 hPa | 0 mm | - | 192 W/m² | - |
| 1777486805 | 16.67° C | 79% | 1015.8 hPa | 0 mm | - | 76 W/m² | - |
| 1777484105 | 16.11° C | 79% | 1016.6 hPa | 0 mm | - | 65 W/m² | - |
| 1777479305 | 15.56° C | 81% | 1016 hPa | 0 mm | - | 41 W/m² | - |
| 1777479005 | 15.56° C | 81% | 1015.8 hPa | 0 mm | - | 68 W/m² | - |
| 1777478405 | 15.56° C | 82% | 1016.7 hPa | 0 mm | - | 77 W/m² | - |
| 1777477805 | 15.56° C | 82% | 1016.8 hPa | 0 mm | - | 54 W/m² | - |
| 1777476605 | 15.56° C | 80% | 1015.8 hPa | 0 mm | - | 114 W/m² | - |
| 1777474805 | 15.56° C | 78% | 1016.6 hPa | 0 mm | - | 42 W/m² | - |
| 1777473304 | 15.56° C | 78% | 1015.9 hPa | 0 mm | - | 63 W/m² | - |
| 1777469404 | 15.56° C | 77% | 1015.9 hPa | 0 mm | - | 19 W/m² | - |
| 1777467306 | 15.56° C | 76% | 1015.4 hPa | 0 mm | - | 19 W/m² | - |
| 1777464604 | 15.56° C | 75% | 1014.8 hPa | 0 mm | - | 5 W/m² | - |
| 1777458904 | 16.67° C | 70% | 1014.5 hPa | 0 mm | - | 0 W/m² | - |
| 1777456504 | 17.78° C | 71% | 1014.3 hPa | 0 mm | - | 0 W/m² | - |
| 1777454704 | 17.78° C | 74% | 1014 hPa | 0 mm | - | 0 W/m² | - |
* Rain latest hour (hover to see other rain measurements)
** Current wind speed in m/s (hover to see current wind gust speed)